createdAt,value
2022-09-11T00:01:38.894Z,78.02
2022-09-11T00:04:05.815Z,77.74
2022-09-11T00:06:32.553Z,77.58
2022-09-11T00:09:01.753Z,77.62
2022-09-11T00:11:34.471Z,77.72
2022-09-11T00:14:01.401Z,77.44
2022-09-11T00:16:34.577Z,77.38
2022-09-11T00:19:07.312Z,78.00
2022-09-11T00:21:34.022Z,78.06
2022-09-11T00:24:00.936Z,78.40
2022-09-11T00:26:27.752Z,78.69
2022-09-11T00:28:54.822Z,78.81
2022-09-11T00:31:27.211Z,79.81
2022-09-11T00:33:54.272Z,80.34
2022-09-11T00:36:23.825Z,79.57
2022-09-11T00:38:51.086Z,80.05
2022-09-11T00:41:27.709Z,80.22
2022-09-11T00:43:59.041Z,80.47
2022-09-11T00:46:44.320Z,80.58
2022-09-11T00:49:50.928Z,81.51
2022-09-11T00:52:24.867Z,82.10
2022-09-11T00:55:05.305Z,81.76
2022-09-11T00:57:35.855Z,81.13
2022-09-11T01:00:04.718Z,80.06
2022-09-11T01:02:34.829Z,80.83
2022-09-11T01:05:03.798Z,80.79
2022-09-11T01:07:31.966Z,80.50
2022-09-11T01:09:59.151Z,81.26
2022-09-11T01:13:00.074Z,81.22
2022-09-11T01:15:35.936Z,81.95
2022-09-11T01:18:05.995Z,82.84
2022-09-11T01:20:50.997Z,83.99
2022-09-11T01:23:46.884Z,83.75
2022-09-11T01:26:31.905Z,83.41
2022-09-11T01:29:26.408Z,84.48
2022-09-11T01:32:19.622Z,84.25
2022-09-11T01:34:52.359Z,83.99
2022-09-11T01:37:27.249Z,82.33
2022-09-11T01:40:02.048Z,82.47
2022-09-11T01:42:36.111Z,83.19
2022-09-11T01:45:05.109Z,83.46
2022-09-11T01:47:34.851Z,84.98
2022-09-11T01:50:11.097Z,86.20
2022-09-11T01:53:00.300Z,86.44
2022-09-11T01:55:37.117Z,85.91
2022-09-11T01:58:09.085Z,85.36
2022-09-11T02:00:41.924Z,84.96
2022-09-11T02:03:22.685Z,83.81
2022-09-11T02:05:57.359Z,83.34
2022-09-11T02:08:30.746Z,83.44
2022-09-11T02:11:07.807Z,83.51
2022-09-11T02:14:03.981Z,83.67
2022-09-11T02:16:42.525Z,83.50
2022-09-11T02:19:12.486Z,83.15
2022-09-11T02:21:39.603Z,83.37
2022-09-11T02:24:08.504Z,83.18
2022-09-11T02:26:41.845Z,83.41
2022-09-11T02:29:08.951Z,83.22
2022-09-11T02:31:36.314Z,82.60
2022-09-11T02:34:03.449Z,82.17
2022-09-11T02:36:51.572Z,82.01
2022-09-11T02:39:33.676Z,81.87
2022-09-11T02:42:03.411Z,82.25
2022-09-11T02:44:42.338Z,82.36
2022-09-11T02:47:36.863Z,81.87
2022-09-11T02:50:33.667Z,82.64
2022-09-11T02:53:18.758Z,82.53
2022-09-11T02:56:06.855Z,82.22
2022-09-11T02:58:46.317Z,81.87
2022-09-11T03:01:13.050Z,82.25
2022-09-11T03:03:45.283Z,83.32
2022-09-11T03:06:17.601Z,82.78
2022-09-11T03:08:45.725Z,82.28
2022-09-11T03:11:12.728Z,82.37
2022-09-11T03:13:39.572Z,82.88
2022-09-11T03:16:08.304Z,83.29
2022-09-11T03:18:35.011Z,83.16
2022-09-11T03:21:01.851Z,83.61
2022-09-11T03:23:28.515Z,83.02
2022-09-11T03:25:55.413Z,83.12
2022-09-11T03:28:23.246Z,83.58
2022-09-11T03:30:50.623Z,82.93
2022-09-11T03:33:17.372Z,82.98
2022-09-11T03:35:44.552Z,82.72
2022-09-11T03:38:12.210Z,82.52
2022-09-11T03:40:42.464Z,82.48
2022-09-11T03:43:09.296Z,82.49
2022-09-11T03:45:35.921Z,82.67
2022-09-11T03:48:02.621Z,82.98
2022-09-11T03:50:29.345Z,83.31
2022-09-11T03:52:56.064Z,83.53
2022-09-11T03:55:22.680Z,83.53
2022-09-11T03:57:49.931Z,83.20
2022-09-11T04:00:16.625Z,84.00
2022-09-11T04:02:54.110Z,84.18
2022-09-11T04:05:30.955Z,83.85
2022-09-11T04:07:59.902Z,84.41
2022-09-11T04:10:27.763Z,84.31
2022-09-11T04:12:56.690Z,84.72
2022-09-11T04:15:23.327Z,84.40
2022-09-11T04:17:50.177Z,83.92
2022-09-11T04:20:16.923Z,84.43
2022-09-11T04:22:45.539Z,84.48
2022-09-11T04:25:13.012Z,84.34
2022-09-11T04:27:39.956Z,83.66
2022-09-11T04:30:10.065Z,83.82
2022-09-11T04:32:36.716Z,83.84
2022-09-11T04:35:03.609Z,83.52
2022-09-11T04:37:35.727Z,83.21
2022-09-11T04:40:03.478Z,83.37
2022-09-11T04:42:31.204Z,83.86
2022-09-11T04:44:58.080Z,83.43
2022-09-11T04:47:24.707Z,83.21
2022-09-11T04:49:51.369Z,82.68
2022-09-11T04:52:18.162Z,82.13
2022-09-11T04:54:44.841Z,81.93
2022-09-11T04:57:11.441Z,82.84
2022-09-11T04:59:39.123Z,82.45
2022-09-11T05:02:10.397Z,83.52
2022-09-11T05:04:40.476Z,82.95
2022-09-11T05:07:07.211Z,82.08
2022-09-11T05:09:35.043Z,82.19
2022-09-11T05:12:02.259Z,82.43
2022-09-11T05:14:31.992Z,82.48
2022-09-11T05:16:59.304Z,82.94
2022-09-11T05:19:28.289Z,83.24
2022-09-11T05:21:54.938Z,83.59
2022-09-11T05:24:22.609Z,83.37
2022-09-11T05:26:51.590Z,84.04
2022-09-11T05:29:18.326Z,84.12
2022-09-11T05:31:55.251Z,85.32
2022-09-11T05:34:21.921Z,84.00
2022-09-11T05:36:49.735Z,82.90
2022-09-11T05:39:19.169Z,82.48
2022-09-11T05:41:54.828Z,81.57
2022-09-11T05:44:28.194Z,81.81
2022-09-11T05:46:56.291Z,82.04
2022-09-11T05:49:24.052Z,81.75
2022-09-11T05:51:51.287Z,80.60
2022-09-11T05:54:17.900Z,81.50
2022-09-11T05:56:45.361Z,81.19
2022-09-11T05:59:19.407Z,80.62
2022-09-11T06:01:48.452Z,80.56
2022-09-11T06:04:21.825Z,81.19
2022-09-11T06:06:51.216Z,81.44
2022-09-11T06:09:18.771Z,82.02
2022-09-11T06:11:45.540Z,81.88
2022-09-11T06:14:12.156Z,81.36
2022-09-11T06:16:39.917Z,81.60
2022-09-11T06:19:11.304Z,82.10
2022-09-11T06:21:37.986Z,81.21
2022-09-11T06:24:10.897Z,80.67
2022-09-11T06:26:38.425Z,81.31
2022-09-11T06:29:05.052Z,82.70
2022-09-11T06:31:35.490Z,83.29
2022-09-11T06:34:02.123Z,82.75
2022-09-11T06:36:29.165Z,82.27
2022-09-11T06:38:58.780Z,82.80
2022-09-11T06:41:28.240Z,83.42
2022-09-11T06:44:03.470Z,84.17
2022-09-11T06:46:31.037Z,85.49
2022-09-11T06:48:59.899Z,85.88
2022-09-11T06:51:28.032Z,85.51
2022-09-11T06:53:57.661Z,84.58
2022-09-11T06:56:26.977Z,83.70
2022-09-11T06:58:53.785Z,83.23
2022-09-11T07:01:24.152Z,83.90
2022-09-11T07:03:56.222Z,82.60
2022-09-11T07:06:27.156Z,83.07
2022-09-11T07:08:57.752Z,81.77
2022-09-11T07:11:24.457Z,82.62
2022-09-11T07:13:51.755Z,82.28
2022-09-11T07:16:18.644Z,80.44
2022-09-11T07:18:52.282Z,79.15
2022-09-11T07:21:23.508Z,79.16
2022-09-11T07:23:58.897Z,79.17
2022-09-11T07:26:29.126Z,79.66
2022-09-11T07:29:02.219Z,80.29
2022-09-11T07:31:32.169Z,80.44
2022-09-11T07:33:59.309Z,80.88
2022-09-11T07:36:28.517Z,79.48
2022-09-11T07:38:55.298Z,78.88
2022-09-11T07:41:27.505Z,77.60
2022-09-11T07:43:59.468Z,79.68
2022-09-11T07:46:28.508Z,79.02
2022-09-11T07:48:55.462Z,80.47
2022-09-11T07:51:22.409Z,81.29
2022-09-11T07:53:51.348Z,81.34
2022-09-11T07:56:22.796Z,79.63
2022-09-11T07:58:51.178Z,80.54
2022-09-11T08:01:24.821Z,80.34
2022-09-11T08:03:56.888Z,79.47
2022-09-11T08:06:27.383Z,78.16
2022-09-11T08:08:59.771Z,77.35
2022-09-11T08:11:27.848Z,77.45
2022-09-11T08:13:55.865Z,78.02
2022-09-11T08:16:27.363Z,78.07
2022-09-11T08:18:57.593Z,76.97
2022-09-11T08:21:24.657Z,76.19
2022-09-11T08:23:51.651Z,77.53
2022-09-11T08:26:26.970Z,78.78
2022-09-11T08:28:56.207Z,78.51
2022-09-11T08:31:26.491Z,78.42
2022-09-11T08:33:56.060Z,76.77
2022-09-11T08:36:23.618Z,76.96
2022-09-11T08:38:52.075Z,76.13
2022-09-11T08:41:24.039Z,75.34
2022-09-11T08:43:55.723Z,74.85
2022-09-11T08:46:26.309Z,76.73
2022-09-11T08:49:17.600Z,75.05
2022-09-11T08:51:44.890Z,74.03
2022-09-11T08:54:26.090Z,73.72
2022-09-11T08:56:59.657Z,72.34
2022-09-11T09:00:03.905Z,69.38
2022-09-11T09:02:59.297Z,69.89
2022-09-11T09:06:04.707Z,69.37
2022-09-11T09:09:12.009Z,69.14
2022-09-11T09:11:53.917Z,70.67
2022-09-11T09:14:35.000Z,70.69
2022-09-11T09:17:27.281Z,71.54
2022-09-11T09:20:01.409Z,71.82
2022-09-11T09:22:45.440Z,71.51
2022-09-11T09:25:17.379Z,71.08
2022-09-11T09:28:14.517Z,70.48
2022-09-11T09:30:55.155Z,70.69
2022-09-11T09:33:51.041Z,70.58
2022-09-11T09:36:30.444Z,70.51
2022-09-11T09:38:59.331Z,70.47
2022-09-11T09:42:05.299Z,70.81
2022-09-11T09:44:50.542Z,74.66
2022-09-11T09:47:17.648Z,74.96
2022-09-11T09:49:45.167Z,75.17
2022-09-11T09:52:26.223Z,72.44
2022-09-11T09:54:56.333Z,74.00
2022-09-11T09:57:26.191Z,73.97
2022-09-11T10:00:01.933Z,72.63
2022-09-11T10:02:45.345Z,71.41
2022-09-11T10:05:16.371Z,70.52
2022-09-11T10:07:52.325Z,70.89
2022-09-11T10:10:39.660Z,71.01
2022-09-11T10:13:27.677Z,68.85
2022-09-11T10:15:57.648Z,69.68
2022-09-11T10:18:30.432Z,69.34
2022-09-11T10:21:32.292Z,69.21
2022-09-11T10:24:01.194Z,69.58
2022-09-11T10:26:29.595Z,71.57
2022-09-11T10:29:04.936Z,69.55
2022-09-11T10:31:31.655Z,68.85
2022-09-11T10:34:00.241Z,68.70
2022-09-11T10:36:29.881Z,68.33
2022-09-11T10:38:58.752Z,67.05
2022-09-11T10:41:27.185Z,67.19
2022-09-11T10:43:59.677Z,68.67
2022-09-11T10:46:41.230Z,67.59
2022-09-11T10:49:16.695Z,69.66
2022-09-11T10:51:58.948Z,68.40
2022-09-11T10:54:34.700Z,67.67
2022-09-11T10:57:23.045Z,67.86
2022-09-11T11:00:15.454Z,68.34
2022-09-11T11:02:52.146Z,69.81
2022-09-11T11:05:24.761Z,68.61
2022-09-11T11:08:29.159Z,66.11
2022-09-11T11:11:32.393Z,67.26
2022-09-11T11:14:36.094Z,68.02
2022-09-11T11:17:36.809Z,67.68
2022-09-11T11:20:21.120Z,66.60
2022-09-11T11:22:47.806Z,67.19
2022-09-11T11:25:29.390Z,66.55
2022-09-11T11:28:44.527Z,66.21
2022-09-11T11:31:39.371Z,64.89
2022-09-11T11:34:29.234Z,65.17
2022-09-11T11:37:15.005Z,64.75
2022-09-11T11:39:44.843Z,64.73
2022-09-11T11:42:24.727Z,64.73
2022-09-11T11:44:56.730Z,63.85
2022-09-11T11:47:30.358Z,62.99
2022-09-11T11:50:06.500Z,62.96
2022-09-11T11:52:33.084Z,61.81
2022-09-11T11:55:14.902Z,59.99
2022-09-11T11:57:47.016Z,61.58
2022-09-11T12:00:16.934Z,56.03
2022-09-11T12:02:51.703Z,54.34
2022-09-11T12:05:25.217Z,56.36
2022-09-11T12:07:52.420Z,54.29
2022-09-11T12:10:41.924Z,55.62
2022-09-11T12:13:14.633Z,54.97
2022-09-11T12:16:18.198Z,57.04
2022-09-11T12:19:13.028Z,53.77
2022-09-11T12:21:45.341Z,54.50
2022-09-11T12:24:14.232Z,54.63
2022-09-11T12:26:40.847Z,54.06
2022-09-11T12:29:10.727Z,52.75
2022-09-11T12:31:49.312Z,51.76
2022-09-11T12:34:23.959Z,51.71
2022-09-11T12:37:13.732Z,51.79
2022-09-11T12:39:50.544Z,51.45
2022-09-11T12:42:23.417Z,50.37
2022-09-11T12:44:50.079Z,51.01
2022-09-11T12:47:37.654Z,51.04
2022-09-11T12:50:04.336Z,52.85
2022-09-11T12:52:39.125Z,51.01
2022-09-11T12:55:32.760Z,51.82
2022-09-11T12:58:03.501Z,50.04
2022-09-11T13:00:40.024Z,49.85
2022-09-11T13:03:17.549Z,49.66
2022-09-11T13:05:52.548Z,47.60
2022-09-11T13:08:21.745Z,50.39
2022-09-11T13:10:48.476Z,51.25
2022-09-11T13:13:35.767Z,48.56
2022-09-11T13:16:22.636Z,48.23
2022-09-11T13:18:49.385Z,50.96
2022-09-11T13:21:19.571Z,50.04
2022-09-11T13:23:47.884Z,51.07
2022-09-11T13:26:24.010Z,48.56
2022-09-11T13:28:53.654Z,49.86
2022-09-11T13:31:44.590Z,47.19
2022-09-11T13:34:17.132Z,46.71
2022-09-11T13:36:44.670Z,48.01
2022-09-11T13:39:15.829Z,46.92
2022-09-11T13:41:43.653Z,47.94
2022-09-11T13:44:20.205Z,49.16
2022-09-11T13:46:51.882Z,47.28
2022-09-11T13:49:36.621Z,48.86
2022-09-11T13:52:05.349Z,48.07
2022-09-11T13:54:36.464Z,47.45
2022-09-11T13:57:03.146Z,48.96
2022-09-11T13:59:44.937Z,52.43
2022-09-11T14:02:50.701Z,53.28
2022-09-11T14:05:19.303Z,56.28
2022-09-11T14:07:59.907Z,56.20
2022-09-11T14:10:34.298Z,58.23
2022-09-11T14:13:21.829Z,59.39
2022-09-11T14:15:53.895Z,58.83
2022-09-11T14:18:52.787Z,59.65
2022-09-11T14:21:32.714Z,59.81
2022-09-11T14:24:00.136Z,61.16
2022-09-11T14:26:32.861Z,61.16
2022-09-11T14:29:21.585Z,60.34
2022-09-11T14:31:48.606Z,61.88
2022-09-11T14:34:16.788Z,59.97
2022-09-11T14:36:47.852Z,58.16
2022-09-11T14:39:23.219Z,58.10
2022-09-11T14:41:50.721Z,58.18
2022-09-11T14:44:17.903Z,58.49
2022-09-11T14:46:44.573Z,58.99
2022-09-11T14:49:11.264Z,60.32
2022-09-11T14:51:38.938Z,60.02
2022-09-11T14:54:05.852Z,60.97
2022-09-11T14:56:32.592Z,59.76
2022-09-11T14:58:59.785Z,59.48
2022-09-11T15:01:26.600Z,57.64
2022-09-11T15:03:53.287Z,56.91
2022-09-11T15:06:21.319Z,56.71
2022-09-11T15:08:48.010Z,55.81
2022-09-11T15:11:14.749Z,57.52
2022-09-11T15:13:57.891Z,58.37
2022-09-11T15:16:28.197Z,58.33
2022-09-11T15:18:54.766Z,57.83
2022-09-11T15:21:21.434Z,59.72
2022-09-11T15:23:48.081Z,58.83
2022-09-11T15:26:14.818Z,58.35
2022-09-11T15:28:41.446Z,58.27
2022-09-11T15:31:08.212Z,58.59
2022-09-11T15:33:34.844Z,59.17
2022-09-11T15:36:04.381Z,59.08
2022-09-11T15:38:31.831Z,60.18
2022-09-11T15:40:58.620Z,60.00
2022-09-11T15:43:33.051Z,59.63
2022-09-11T15:46:00.133Z,59.79
2022-09-11T15:48:26.802Z,62.05
2022-09-11T15:51:00.988Z,62.67
2022-09-11T15:53:28.815Z,63.87
2022-09-11T15:56:08.009Z,61.75
2022-09-11T15:58:36.221Z,59.04
2022-09-11T16:01:03.703Z,59.85
2022-09-11T16:03:31.086Z,58.83
2022-09-11T16:05:57.855Z,61.28
2022-09-11T16:08:24.732Z,60.27
2022-09-11T16:10:51.758Z,58.86
2022-09-11T16:13:18.916Z,58.09
2022-09-11T16:15:46.852Z,58.57
2022-09-11T16:18:13.808Z,60.18
2022-09-11T16:20:40.376Z,59.92
2022-09-11T16:23:07.835Z,59.03
2022-09-11T16:25:40.904Z,59.22
2022-09-11T16:28:08.566Z,60.38
2022-09-11T16:30:44.483Z,59.02
2022-09-11T16:33:13.317Z,57.71
2022-09-11T16:35:39.998Z,57.97
2022-09-11T16:38:07.837Z,58.41
2022-09-11T16:40:35.240Z,58.38
2022-09-11T16:43:03.026Z,58.34
2022-09-11T16:45:29.659Z,57.59
2022-09-11T16:47:59.142Z,58.14
2022-09-11T16:50:26.324Z,58.75
2022-09-11T16:52:53.139Z,58.41
2022-09-11T16:55:19.810Z,59.33
2022-09-11T16:57:46.487Z,61.45
2022-09-11T17:00:13.733Z,62.15
2022-09-11T17:02:40.797Z,61.21
2022-09-11T17:05:08.366Z,62.35
2022-09-11T17:07:35.701Z,63.38
2022-09-11T17:10:03.088Z,62.02
2022-09-11T17:12:29.824Z,62.01
2022-09-11T17:14:56.472Z,62.43
2022-09-11T17:17:23.198Z,61.57
2022-09-11T17:19:49.770Z,60.83
2022-09-11T17:22:17.274Z,59.62
2022-09-11T17:24:43.844Z,59.25
2022-09-11T17:27:10.541Z,59.14
2022-09-11T17:29:39.254Z,59.48
2022-09-11T17:32:27.277Z,60.09
2022-09-11T17:34:54.846Z,59.85
2022-09-11T17:37:21.428Z,60.02
2022-09-11T17:39:48.182Z,59.89
2022-09-11T17:42:15.369Z,59.86
2022-09-11T17:44:41.986Z,59.38
2022-09-11T17:47:08.952Z,59.17
2022-09-11T17:49:35.687Z,59.15
2022-09-11T17:52:02.539Z,59.37
2022-09-11T17:54:29.164Z,59.64
2022-09-11T17:56:55.811Z,59.30
2022-09-11T17:59:22.622Z,58.97
2022-09-11T18:01:49.387Z,59.40
2022-09-11T18:04:16.206Z,59.10
2022-09-11T18:06:42.790Z,59.09
2022-09-11T18:09:12.162Z,58.97
2022-09-11T18:11:40.466Z,59.11
2022-09-11T18:14:07.259Z,59.28
2022-09-11T18:16:34.177Z,59.43
2022-09-11T18:19:02.011Z,59.21
2022-09-11T18:21:28.600Z,59.55
2022-09-11T18:23:55.308Z,60.37
2022-09-11T18:26:30.656Z,60.59
2022-09-11T18:29:02.909Z,60.48
2022-09-11T18:31:30.866Z,60.50
2022-09-11T18:34:00.278Z,60.94
2022-09-11T18:36:29.506Z,60.70
2022-09-11T18:39:00.010Z,61.18
2022-09-11T18:41:28.226Z,62.40
2022-09-11T18:43:55.972Z,62.75
2022-09-11T18:46:23.310Z,62.96
2022-09-11T18:48:50.203Z,64.17
2022-09-11T18:51:18.616Z,65.11
2022-09-11T18:53:50.304Z,66.47
2022-09-11T18:56:16.993Z,65.67
2022-09-11T18:58:43.728Z,64.63
2022-09-11T19:01:14.503Z,65.08
2022-09-11T19:03:41.395Z,65.67
2022-09-11T19:06:10.877Z,65.82
2022-09-11T19:08:39.740Z,65.65
2022-09-11T19:11:15.991Z,66.20
2022-09-11T19:13:46.096Z,66.01
2022-09-11T19:16:13.445Z,66.43
2022-09-11T19:18:40.849Z,67.22
2022-09-11T19:21:11.761Z,67.70
2022-09-11T19:23:43.437Z,68.52
2022-09-11T19:26:12.992Z,69.13
2022-09-11T19:28:41.443Z,68.67
2022-09-11T19:31:10.051Z,68.91
2022-09-11T19:33:37.761Z,69.26
2022-09-11T19:36:36.172Z,68.74
2022-09-11T19:39:03.853Z,68.79
2022-09-11T19:41:36.807Z,68.94
2022-09-11T19:44:05.066Z,68.69
2022-09-11T19:46:33.664Z,68.56
2022-09-11T19:49:02.564Z,68.27
2022-09-11T19:51:31.800Z,68.21
2022-09-11T19:54:00.815Z,69.27
2022-09-11T19:56:28.357Z,70.22
2022-09-11T19:58:55.638Z,68.96
2022-09-11T20:01:23.668Z,68.05
2022-09-11T20:03:52.280Z,67.48
2022-09-11T20:06:20.413Z,67.95
2022-09-11T20:08:48.874Z,68.61
2022-09-11T20:11:19.282Z,68.83
2022-09-11T20:13:46.065Z,68.09
2022-09-11T20:16:18.773Z,68.55
2022-09-11T20:18:46.013Z,69.24
2022-09-11T20:21:15.099Z,68.73
2022-09-11T20:23:43.789Z,68.97
2022-09-11T20:26:16.958Z,68.99
2022-09-11T20:28:45.958Z,69.20
2022-09-11T20:31:14.035Z,69.75
2022-09-11T20:33:41.149Z,70.62
2022-09-11T20:36:07.838Z,71.80
2022-09-11T20:38:35.023Z,72.84
2022-09-11T20:41:10.449Z,72.56
2022-09-11T20:43:37.158Z,71.85
2022-09-11T20:46:04.224Z,70.75
2022-09-11T20:48:31.707Z,70.20
2022-09-11T20:51:03.093Z,70.12
2022-09-11T20:53:29.783Z,70.79
2022-09-11T20:56:10.876Z,70.26
2022-09-11T20:58:38.487Z,70.04
2022-09-11T21:01:07.421Z,69.72
2022-09-11T21:03:34.536Z,70.08
2022-09-11T21:06:08.523Z,70.90
2022-09-11T21:08:36.107Z,70.98
2022-09-11T21:11:06.364Z,70.96
2022-09-11T21:13:38.118Z,70.43
2022-09-11T21:16:09.865Z,70.50
2022-09-11T21:18:37.629Z,70.88
2022-09-11T21:21:04.611Z,70.66
2022-09-11T21:23:31.533Z,70.55
2022-09-11T21:25:58.271Z,70.53
2022-09-11T21:28:24.989Z,70.43
2022-09-11T21:30:51.601Z,70.30
2022-09-11T21:33:18.603Z,70.27
2022-09-11T21:35:49.980Z,70.58
2022-09-11T21:38:16.595Z,70.95
2022-09-11T21:40:43.168Z,70.86
2022-09-11T21:43:09.871Z,71.14
2022-09-11T21:45:36.498Z,70.44
2022-09-11T21:48:03.312Z,71.15
2022-09-11T21:50:30.174Z,71.03
2022-09-11T21:52:56.925Z,71.07
2022-09-11T21:55:23.533Z,71.27
2022-09-11T21:57:50.564Z,72.59
2022-09-11T22:00:17.161Z,72.83
2022-09-11T22:02:43.861Z,72.26
2022-09-11T22:05:10.635Z,71.93
2022-09-11T22:07:37.403Z,72.38
2022-09-11T22:10:06.537Z,73.07
2022-09-11T22:12:34.803Z,73.72
2022-09-11T22:15:01.779Z,73.88
2022-09-11T22:17:28.685Z,73.79
2022-09-11T22:19:55.361Z,74.15
2022-09-11T22:22:22.045Z,74.55
2022-09-11T22:24:48.628Z,75.11
2022-09-11T22:27:15.520Z,74.70
2022-09-11T22:29:46.816Z,74.97
2022-09-11T22:32:13.780Z,75.04
2022-09-11T22:34:40.446Z,74.49
2022-09-11T22:37:07.164Z,73.57
2022-09-11T22:39:33.760Z,72.85
2022-09-11T22:42:00.647Z,73.43
2022-09-11T22:44:27.296Z,73.32
2022-09-11T22:46:54.136Z,73.58
2022-09-11T22:49:20.863Z,72.77
2022-09-11T22:51:47.731Z,72.89
2022-09-11T22:54:14.421Z,72.71
2022-09-11T22:56:41.220Z,72.37
2022-09-11T22:59:08.209Z,72.89
2022-09-11T23:01:35.624Z,73.04
2022-09-11T23:04:02.720Z,72.88
2022-09-11T23:06:29.364Z,72.97
2022-09-11T23:08:56.399Z,72.22
2022-09-11T23:11:23.198Z,71.32
2022-09-11T23:13:50.227Z,71.22
2022-09-11T23:16:22.796Z,71.53
2022-09-11T23:18:57.078Z,71.48
2022-09-11T23:21:24.324Z,72.48
2022-09-11T23:23:54.540Z,72.59
2022-09-11T23:26:22.737Z,72.15
2022-09-11T23:28:49.859Z,71.99
2022-09-11T23:31:22.366Z,72.86
2022-09-11T23:33:49.303Z,72.24
2022-09-11T23:36:16.268Z,71.83
2022-09-11T23:38:44.312Z,71.86
2022-09-11T23:41:11.048Z,72.48
2022-09-11T23:43:37.832Z,72.59
2022-09-11T23:46:04.528Z,73.51
2022-09-11T23:48:31.365Z,74.92
2022-09-11T23:50:58.053Z,74.63
2022-09-11T23:53:24.771Z,74.46
2022-09-11T23:55:51.500Z,74.68
2022-09-11T23:58:18.187Z,75.70
